Time;durP1;ratioP1;P1;durP2;ratioP2;P2;SDS_P1;SDS_P2;PMS_P1;PMS_P2;Temp;Humidity;BMP_temperature;BMP_pressure;BME280_temperature;BME280_humidity;BME280_pressure;Samples;Min_cycle;Max_cycle;Signal;HPM_P1;HPM_P2
2022/12/27 00:00:31;;;;;;;17.83;4.07;;;;;;;;;;5035675;28;20486;-65
2022/12/27 00:02:57;;;;;;;19.35;5.07;;;;;;;;;;5034812;28;20079;-65
2022/12/27 00:05:23;;;;;;;7.47;4.03;;;;;;;;;;5035641;28;20084;-65
2022/12/27 00:07:49;;;;;;;8.90;4.38;;;;;;;;;;5035577;28;20104;-65
2022/12/27 00:10:16;;;;;;;13.80;3.78;;;;;;;;;;5035450;28;20037;-65
2022/12/27 00:12:42;;;;;;;7.72;3.45;;;;;;;;;;5035598;28;20109;-65
2022/12/27 00:15:09;;;;;;;12.35;5.45;;;;;;;;;;5034914;28;20778;-65
2022/12/27 00:17:35;;;;;;;18.67;8.10;;;;;;;;;;5035118;28;20083;-65
2022/12/27 00:20:01;;;;;;;31.23;11.15;;;;;;;;;;5035233;28;20029;-65
2022/12/27 00:22:27;;;;;;;39.17;14.70;;;;;;;;;;5035380;28;20124;-65
2022/12/27 00:24:53;;;;;;;27.05;10.05;;;;;;;;;;5035050;28;20085;-65
2022/12/27 00:27:20;;;;;;;17.20;8.05;;;;;;;;;;5035260;28;20154;-65
2022/12/27 00:29:46;;;;;;;24.65;9.07;;;;;;;;;;5022312;28;20017;-65
2022/12/27 00:32:12;;;;;;;21.63;7.50;;;;;;;;;;5033459;28;20028;-65
2022/12/27 00:34:38;;;;;;;21.10;7.30;;;;;;;;;;5034805;28;20053;-65
2022/12/27 00:37:04;;;;;;;14.82;6.50;;;;;;;;;;5034480;28;20073;-65
2022/12/27 00:39:30;;;;;;;15.60;6.03;;;;;;;;;;5034967;28;20493;-65
2022/12/27 00:41:56;;;;;;;25.50;5.50;;;;;;;;;;5034875;28;20097;-65
2022/12/27 00:44:23;;;;;;;13.85;5.55;;;;;;;;;;5034838;28;20022;-65
2022/12/27 00:46:49;;;;;;;11.88;4.72;;;;;;;;;;5034573;28;20502;-65
2022/12/27 00:49:15;;;;;;;11.50;4.72;;;;;;;;;;5034228;28;20057;-65
2022/12/27 00:51:41;;;;;;;13.20;5.15;;;;;;;;;;5034814;28;20393;-65
2022/12/27 00:54:09;;;;;;;15.10;4.85;;;;;;;;;;5034571;28;20432;-65
2022/12/27 00:56:35;;;;;;;8.40;3.70;;;;;;;;;;5034112;28;20048;-65
2022/12/27 00:59:03;;;;;;;9.35;3.83;;;;;;;;;;5034187;28;20036;-65
2022/12/27 01:01:31;;;;;;;9.98;3.60;;;;;;;;;;5034358;28;20052;-65
2022/12/27 01:03:57;;;;;;;7.70;3.88;;;;;;;;;;5034366;28;20021;-65
2022/12/27 01:06:27;;;;;;;10.10;2.97;;;;;;;;;;5034391;28;20576;-65
2022/12/27 01:08:53;;;;;;;9.05;3.03;;;;;;;;;;5034753;28;20393;-65
2022/12/27 01:11:20;;;;;;;8.52;3.08;;;;;;;;;;5033957;28;20486;-65
2022/12/27 01:13:47;;;;;;;6.55;3.70;;;;;;;;;;5034356;28;20448;-65
2022/12/27 01:16:18;;;;;;;8.05;3.85;;;;;;;;;;5033902;28;20116;-65
2022/12/27 01:18:45;;;;;;;14.27;4.28;;;;;;;;;;5034310;28;20029;-65
2022/12/27 01:21:12;;;;;;;7.32;3.38;;;;;;;;;;5033773;28;20029;-65
2022/12/27 01:23:38;;;;;;;8.60;3.50;;;;;;;;;;5034260;28;20073;-65
2022/12/27 01:26:10;;;;;;;10.35;3.00;;;;;;;;;;5034057;28;20026;-65
2022/12/27 01:28:37;;;;;;;5.93;3.43;;;;;;;;;;5034098;28;20152;-65
2022/12/27 01:31:06;;;;;;;6.20;2.70;;;;;;;;;;5033357;28;20048;-65
2022/12/27 01:33:33;;;;;;;10.23;3.75;;;;;;;;;;5033833;28;20053;-65
2022/12/27 01:36:06;;;;;;;4.25;2.67;;;;;;;;;;5033897;28;20029;-65
2022/12/27 01:38:32;;;;;;;11.02;2.58;;;;;;;;;;5032317;28;20033;-65
2022/12/27 01:40:58;;;;;;;12.38;2.45;;;;;;;;;;5033902;28;20021;-65
2022/12/27 01:43:37;;;;;;;13.82;2.70;;;;;;;;;;5033308;28;20025;-65
2022/12/27 01:46:03;;;;;;;9.32;2.25;;;;;;;;;;5033492;28;20034;-65
2022/12/27 01:48:30;;;;;;;6.40;2.17;;;;;;;;;;5033442;28;20026;-65
2022/12/27 01:51:01;;;;;;;4.60;1.80;;;;;;;;;;5033570;28;20124;-65
2022/12/27 01:53:29;;;;;;;19.75;2.72;;;;;;;;;;5032274;28;20497;-65
2022/12/27 01:56:01;;;;;;;13.15;4.20;;;;;;;;;;5033595;28;20026;-65
2022/12/27 01:58:27;;;;;;;3.60;2.00;;;;;;;;;;5032988;28;20037;-65
2022/12/27 02:00:54;;;;;;;6.70;3.28;;;;;;;;;;5033457;28;21031;-65
2022/12/27 02:03:24;;;;;;;11.82;2.05;;;;;;;;;;5032894;28;20029;-65
2022/12/27 02:05:51;;;;;;;4.43;2.20;;;;;;;;;;5033308;28;20062;-65
2022/12/27 02:08:29;;;;;;;9.45;2.00;;;;;;;;;;5032179;28;20029;-65
2022/12/27 02:10:57;;;;;;;9.02;2.35;;;;;;;;;;5033346;28;20108;-65
2022/12/27 02:13:23;;;;;;;7.13;1.80;;;;;;;;;;5032446;28;20068;-65
2022/12/27 02:15:49;;;;;;;8.25;2.10;;;;;;;;;;5033136;28;20121;-65
2022/12/27 02:18:16;;;;;;;9.07;2.03;;;;;;;;;;5032990;28;20107;-65
2022/12/27 02:21:02;;;;;;;9.32;2.22;;;;;;;;;;5033204;28;20040;-65
2022/12/27 02:24:01;;;;;;;6.70;2.05;;;;;;;;;;5050437;28;20037;-65
2022/12/27 02:26:43;;;;;;;5.93;1.80;;;;;;;;;;5050593;28;20144;-65
2022/12/27 02:29:19;;;;;;;6.72;2.28;;;;;;;;;;5049272;28;20487;-65
2022/12/27 02:31:50;;;;;;;12.07;2.67;;;;;;;;;;5050675;28;20119;-65
2022/12/27 02:34:22;;;;;;;12.13;2.33;;;;;;;;;;5050223;28;20083;-65
2022/12/27 02:36:49;;;;;;;10.00;2.20;;;;;;;;;;5050532;28;20124;-65
2022/12/27 02:39:17;;;;;;;6.95;2.65;;;;;;;;;;5049939;28;20032;-65
2022/12/27 02:53:08;;;;;;;7.03;2.53;;;;;;;;;;5050295;28;20029;-65
2022/12/27 02:55:41;;;;;;;6.38;2.42;;;;;;;;;;5049997;28;20481;-65
2022/12/27 02:58:13;;;;;;;9.75;2.58;;;;;;;;;;5049861;28;20037;-65
2022/12/27 03:03:47;;;;;;;8.85;2.50;;;;;;;;;;5031696;28;20029;-65
2022/12/27 03:09:04;;;;;;;7.60;1.70;;;;;;;;;;5025674;28;20045;-65
2022/12/27 03:17:26;;;;;;;3.03;1.85;;;;;;;;;;5012524;28;20052;-65
2022/12/27 03:25:28;;;;;;;6.80;1.88;;;;;;;;;;5012126;28;20026;-65
2022/12/27 03:33:31;;;;;;;7.18;2.30;;;;;;;;;;5011561;28;20050;-65
2022/12/27 03:39:15;;;;;;;5.60;2.30;;;;;;;;;;5022709;28;20071;-65
2022/12/27 03:44:35;;;;;;;9.60;2.80;;;;;;;;;;5031952;28;20034;-65
2022/12/27 03:47:07;;;;;;;12.32;3.17;;;;;;;;;;5032064;28;20044;-65
2022/12/27 03:49:43;;;;;;;15.57;3.58;;;;;;;;;;5031823;28;20032;-65
2022/12/27 03:52:14;;;;;;;7.38;2.50;;;;;;;;;;5032245;28;20053;-65
2022/12/27 03:54:42;;;;;;;8.23;2.38;;;;;;;;;;5031653;28;20370;-65
2022/12/27 03:57:10;;;;;;;9.48;2.53;;;;;;;;;;5032073;28;20026;-65
2022/12/27 03:59:36;;;;;;;10.35;2.70;;;;;;;;;;5031628;28;20083;-65
2022/12/27 04:02:03;;;;;;;9.60;2.47;;;;;;;;;;5031979;28;20031;-65
2022/12/27 04:04:29;;;;;;;7.43;2.25;;;;;;;;;;5031683;28;20060;-65
2022/12/27 04:06:55;;;;;;;6.07;2.22;;;;;;;;;;5031926;28;20080;-65
2022/12/27 04:36:51;;;;;;;8.75;2.20;;;;;;;;;;5035925;28;20033;-64
2022/12/27 04:39:17;;;;;;;7.93;2.30;;;;;;;;;;5035401;28;20444;-65
2022/12/27 04:55:33;;;;;;;5.63;2.15;;;;;;;;;;5035397;28;20072;-66
2022/12/27 04:58:01;;;;;;;2.95;1.70;;;;;;;;;;5035346;28;20021;-66
2022/12/27 05:03:18;;;;;;;5.00;1.73;;;;;;;;;;5034775;28;20049;-66
2022/12/27 05:05:45;;;;;;;5.95;1.60;;;;;;;;;;5035042;28;20021;-65
2022/12/27 05:13:59;;;;;;;5.15;2.00;;;;;;;;;;5033026;28;20037;-65
2022/12/27 05:16:26;;;;;;;11.07;4.25;;;;;;;;;;5033895;28;20079;-65
2022/12/27 05:18:53;;;;;;;8.60;1.92;;;;;;;;;;5035137;28;20025;-65
2022/12/27 05:21:19;;;;;;;6.35;2.25;;;;;;;;;;5054191;28;20036;-65
2022/12/27 05:26:31;;;;;;;7.57;2.53;;;;;;;;;;5054472;28;20025;-65
2022/12/27 05:28:58;;;;;;;7.07;2.65;;;;;;;;;;5054355;28;20029;-65
2022/12/27 05:31:25;;;;;;;8.40;2.20;;;;;;;;;;5054284;28;20090;-65
2022/12/27 05:33:51;;;;;;;6.22;2.08;;;;;;;;;;5053988;28;20052;-65
2022/12/27 05:36:18;;;;;;;8.90;2.03;;;;;;;;;;5054059;28;20025;-65
2022/12/27 05:38:45;;;;;;;4.90;2.30;;;;;;;;;;5045600;28;20074;-65
2022/12/27 05:41:11;;;;;;;6.63;2.10;;;;;;;;;;5034117;28;20071;-65
2022/12/27 05:43:37;;;;;;;9.98;2.42;;;;;;;;;;5033802;28;20025;-65
2022/12/27 05:46:08;;;;;;;5.43;2.10;;;;;;;;;;5034148;28;20041;-65
2022/12/27 05:48:35;;;;;;;9.60;2.05;;;;;;;;;;5033781;28;20033;-65
2022/12/27 05:51:11;;;;;;;2.85;1.85;;;;;;;;;;5033435;28;20045;-65
2022/12/27 05:53:38;;;;;;;6.30;2.20;;;;;;;;;;5034007;28;20033;-65
2022/12/27 05:56:04;;;;;;;4.65;1.95;;;;;;;;;;5034079;28;20033;-65
2022/12/27 05:58:30;;;;;;;12.77;2.45;;;;;;;;;;5033664;28;20191;-65
2022/12/27 06:00:57;;;;;;;9.48;2.47;;;;;;;;;;5033483;28;20029;-65
2022/12/27 06:03:23;;;;;;;4.65;1.95;;;;;;;;;;5033783;28;20026;-65
2022/12/27 06:05:49;;;;;;;8.00;2.15;;;;;;;;;;5032995;28;20025;-65
2022/12/27 06:08:16;;;;;;;8.25;2.55;;;;;;;;;;5033733;28;20057;-65
2022/12/27 06:10:42;;;;;;;5.65;1.85;;;;;;;;;;5033467;28;20474;-65
2022/12/27 06:13:08;;;;;;;6.63;1.98;;;;;;;;;;5033643;28;20511;-65
2022/12/27 06:15:34;;;;;;;4.78;2.63;;;;;;;;;;5033234;28;20064;-65
2022/12/27 06:18:02;;;;;;;9.75;2.08;;;;;;;;;;5033403;28;20047;-65
2022/12/27 06:20:29;;;;;;;3.55;2.22;;;;;;;;;;5033026;28;20048;-65
2022/12/27 06:22:55;;;;;;;4.57;1.60;;;;;;;;;;5033206;28;20035;-65
2022/12/27 06:25:21;;;;;;;5.75;2.50;;;;;;;;;;5033236;28;20025;-65
2022/12/27 06:27:47;;;;;;;5.75;1.70;;;;;;;;;;5032957;28;20432;-65
2022/12/27 06:30:14;;;;;;;7.47;2.60;;;;;;;;;;5033199;28;20041;-65
2022/12/27 06:32:40;;;;;;;9.07;1.75;;;;;;;;;;5032787;28;20034;-65
2022/12/27 06:35:06;;;;;;;8.70;2.55;;;;;;;;;;5032933;28;20038;-65
2022/12/27 06:37:32;;;;;;;5.15;1.92;;;;;;;;;;5032816;28;20037;-65
2022/12/27 06:39:58;;;;;;;10.48;2.10;;;;;;;;;;5032754;28;20026;-65
2022/12/27 06:42:26;;;;;;;5.60;2.33;;;;;;;;;;5032802;28;20095;-65
2022/12/27 06:44:52;;;;;;;8.05;2.38;;;;;;;;;;5032870;28;20075;-65
2022/12/27 06:47:18;;;;;;;13.50;2.72;;;;;;;;;;5032915;28;20029;-65
2022/12/27 06:49:44;;;;;;;7.10;2.35;;;;;;;;;;5032142;28;20382;-65
2022/12/27 06:52:10;;;;;;;6.78;2.50;;;;;;;;;;5032834;28;20553;-65
2022/12/27 06:54:36;;;;;;;13.45;2.35;;;;;;;;;;5032133;28;20072;-65
2022/12/27 06:57:02;;;;;;;8.40;2.40;;;;;;;;;;5032535;28;20037;-65
2022/12/27 06:59:28;;;;;;;6.35;2.20;;;;;;;;;;5032645;28;20040;-65
2022/12/27 07:01:54;;;;;;;5.75;2.28;;;;;;;;;;5032318;28;20083;-65
2022/12/27 07:04:21;;;;;;;4.43;2.50;;;;;;;;;;5032294;28;20029;-65
2022/12/27 07:06:47;;;;;;;7.45;2.40;;;;;;;;;;5032432;28;20025;-65
2022/12/27 07:09:13;;;;;;;4.50;2.17;;;;;;;;;;5032614;28;20505;-65
2022/12/27 07:11:39;;;;;;;10.98;2.50;;;;;;;;;;5032188;28;20486;-65
2022/12/27 07:14:07;;;;;;;8.50;2.30;;;;;;;;;;5032449;28;20030;-65
2022/12/27 07:16:33;;;;;;;5.30;2.10;;;;;;;;;;5032415;28;20541;-65
2022/12/27 07:18:59;;;;;;;6.65;2.42;;;;;;;;;;5031827;28;20033;-65
2022/12/27 07:21:27;;;;;;;5.05;2.28;;;;;;;;;;5032472;28;20028;-65
2022/12/27 07:23:53;;;;;;;6.45;2.20;;;;;;;;;;5032079;28;20033;-65
2022/12/27 07:26:25;;;;;;;9.20;2.45;;;;;;;;;;5032454;28;20029;-65
2022/12/27 07:28:53;;;;;;;5.43;2.15;;;;;;;;;;5029694;28;20030;-65
2022/12/27 07:31:21;;;;;;;6.28;2.45;;;;;;;;;;5022994;28;20064;-65
2022/12/27 07:33:48;;;;;;;8.27;2.03;;;;;;;;;;5025384;28;20049;-65
2022/12/27 07:36:18;;;;;;;17.85;2.47;;;;;;;;;;5032347;28;20420;-65
2022/12/27 07:38:44;;;;;;;10.00;2.40;;;;;;;;;;5031408;28;20132;-65
2022/12/27 07:41:12;;;;;;;8.60;3.33;;;;;;;;;;5032749;28;20014;-65
2022/12/27 07:43:38;;;;;;;4.30;1.75;;;;;;;;;;5032179;28;20375;-65
2022/12/27 07:46:09;;;;;;;3.50;1.58;;;;;;;;;;5029351;28;20025;-65
2022/12/27 07:48:36;;;;;;;4.22;2.00;;;;;;;;;;5030238;28;20420;-66
2022/12/27 07:51:03;;;;;;;8.18;2.10;;;;;;;;;;5028613;28;20473;-66
2022/12/27 07:53:29;;;;;;;7.75;3.05;;;;;;;;;;5017551;28;20031;-66
2022/12/27 07:55:56;;;;;;;8.90;1.90;;;;;;;;;;5021745;28;20034;-66
2022/12/27 07:58:22;;;;;;;5.63;1.60;;;;;;;;;;5022122;28;20069;-66
2022/12/27 08:00:49;;;;;;;7.68;1.90;;;;;;;;;;5023073;28;20022;-65
2022/12/27 08:03:15;;;;;;;6.80;1.30;;;;;;;;;;5019220;28;20018;-65
2022/12/27 08:05:48;;;;;;;5.45;1.73;;;;;;;;;;5021549;28;20112;-65
2022/12/27 08:08:15;;;;;;;8.40;1.80;;;;;;;;;;5022435;28;20067;-65
2022/12/27 08:10:41;;;;;;;12.90;2.30;;;;;;;;;;5024739;28;20075;-66
2022/12/27 08:13:08;;;;;;;10.70;2.78;;;;;;;;;;5025145;28;20040;-66
2022/12/27 08:15:34;;;;;;;10.57;2.05;;;;;;;;;;5025251;28;20070;-66
2022/12/27 08:18:00;;;;;;;6.00;2.10;;;;;;;;;;5030095;28;20398;-66
2022/12/27 08:20:26;;;;;;;12.13;2.53;;;;;;;;;;5034268;28;20030;-66
2022/12/27 08:22:52;;;;;;;10.35;3.83;;;;;;;;;;5034093;28;20037;-66
2022/12/27 08:25:18;;;;;;;15.43;5.20;;;;;;;;;;5045482;28;20040;-66
2022/12/27 08:27:44;;;;;;;20.13;6.85;;;;;;;;;;5025672;28;20017;-66
2022/12/27 08:30:11;;;;;;;22.67;6.90;;;;;;;;;;5028902;28;20028;-67
2022/12/27 08:32:37;;;;;;;11.73;4.32;;;;;;;;;;5033936;28;20038;-67
2022/12/27 08:35:03;;;;;;;8.27;2.53;;;;;;;;;;5034401;28;20100;-67
2022/12/27 08:37:29;;;;;;;11.52;3.20;;;;;;;;;;5033450;28;20025;-67
2022/12/27 08:39:55;;;;;;;6.53;2.28;;;;;;;;;;5034099;28;20469;-67
2022/12/27 08:42:21;;;;;;;9.95;2.80;;;;;;;;;;5034713;28;20033;-67
2022/12/27 08:44:47;;;;;;;6.07;1.75;;;;;;;;;;5032228;28;20572;-67
2022/12/27 08:47:13;;;;;;;5.07;1.50;;;;;;;;;;5030124;28;20034;-67
2022/12/27 08:49:39;;;;;;;10.68;3.42;;;;;;;;;;5026434;28;20021;-67
2022/12/27 08:52:06;;;;;;;9.02;2.97;;;;;;;;;;5031200;28;20025;-67
2022/12/27 08:54:32;;;;;;;12.05;2.50;;;;;;;;;;5034020;28;20026;-67
2022/12/27 08:56:58;;;;;;;13.45;2.17;;;;;;;;;;5027842;28;20029;-67
2022/12/27 08:59:24;;;;;;;8.18;2.10;;;;;;;;;;5027529;28;20037;-67
2022/12/27 09:01:50;;;;;;;10.43;2.25;;;;;;;;;;5023976;28;20402;-67
2022/12/27 09:04:16;;;;;;;10.15;2.25;;;;;;;;;;5026409;28;20134;-67
2022/12/27 09:06:43;;;;;;;7.00;2.50;;;;;;;;;;5025582;28;20563;-67
2022/12/27 09:09:09;;;;;;;9.43;3.00;;;;;;;;;;5023972;28;20076;-67
2022/12/27 09:11:35;;;;;;;14.10;2.22;;;;;;;;;;5028573;28;20500;-66
2022/12/27 09:14:02;;;;;;;7.28;1.85;;;;;;;;;;5019035;28;20045;-66
2022/12/27 09:16:29;;;;;;;6.75;2.97;;;;;;;;;;5024454;28;20029;-66
2022/12/27 09:18:56;;;;;;;6.28;2.20;;;;;;;;;;5019335;28;20526;-66
2022/12/27 09:21:23;;;;;;;26.30;4.82;;;;;;;;;;5022474;28;20061;-66
2022/12/27 09:23:50;;;;;;;8.18;2.30;;;;;;;;;;5018797;28;20014;-67
2022/12/27 09:26:17;;;;;;;10.73;3.22;;;;;;;;;;5019795;28;20048;-66
2022/12/27 09:28:44;;;;;;;10.13;2.10;;;;;;;;;;5018584;28;20052;-67
2022/12/27 09:31:11;;;;;;;11.30;2.50;;;;;;;;;;5022032;28;20060;-68
2022/12/27 09:33:37;;;;;;;9.85;2.58;;;;;;;;;;5017605;28;20050;-68
2022/12/27 09:36:04;;;;;;;8.13;4.07;;;;;;;;;;5027618;28;20033;-68
2022/12/27 09:38:30;;;;;;;8.40;2.13;;;;;;;;;;5019902;28;20034;-68
2022/12/27 09:40:58;;;;;;;11.07;2.28;;;;;;;;;;5018744;28;20113;-67
2022/12/27 09:43:44;;;;;;;9.10;2.17;;;;;;;;;;5027106;28;20037;-67
2022/12/27 09:46:14;;;;;;;4.43;2.10;;;;;;;;;;5016693;28;20018;-67
2022/12/27 09:48:40;;;;;;;8.23;2.40;;;;;;;;;;5027186;28;20087;-67
2022/12/27 09:51:13;;;;;;;11.18;2.58;;;;;;;;;;5030479;28;20394;-67
2022/12/27 09:53:52;;;;;;;13.68;2.03;;;;;;;;;;5027103;28;20460;-67
2022/12/27 09:56:22;;;;;;;10.90;2.35;;;;;;;;;;5029965;28;20087;-67
2022/12/27 09:58:48;;;;;;;24.42;3.72;;;;;;;;;;5032144;28;20030;-67
2022/12/27 10:01:23;;;;;;;6.93;2.42;;;;;;;;;;5024330;28;20021;-68
2022/12/27 10:03:50;;;;;;;7.93;2.20;;;;;;;;;;5026759;28;20543;-67
2022/12/27 10:06:43;;;;;;;8.00;2.50;;;;;;;;;;5032273;28;20018;-67
2022/12/27 10:09:19;;;;;;;12.57;2.15;;;;;;;;;;5022168;28;20028;-67
2022/12/27 10:12:10;;;;;;;9.93;2.53;;;;;;;;;;5019548;28;20033;-67
2022/12/27 10:14:58;;;;;;;7.10;2.15;;;;;;;;;;5022390;28;20036;-67
2022/12/27 10:17:27;;;;;;;10.43;2.35;;;;;;;;;;5019465;28;20033;-67
2022/12/27 10:19:59;;;;;;;7.22;1.80;;;;;;;;;;5024986;28;20070;-67
2022/12/27 10:22:33;;;;;;;9.77;2.22;;;;;;;;;;5026108;28;20096;-68
2022/12/27 10:25:00;;;;;;;7.28;1.98;;;;;;;;;;5031154;28;20028;-67
2022/12/27 10:27:28;;;;;;;10.88;3.63;;;;;;;;;;5019006;28;20048;-68
2022/12/27 10:29:55;;;;;;;12.00;2.47;;;;;;;;;;5023500;28;20041;-68
2022/12/27 10:32:21;;;;;;;9.40;2.65;;;;;;;;;;5019992;28;20022;-68
2022/12/27 10:34:50;;;;;;;5.15;2.08;;;;;;;;;;5030326;28;20054;-67
2022/12/27 10:37:16;;;;;;;7.38;1.67;;;;;;;;;;5019717;28;20524;-65
2022/12/27 10:39:43;;;;;;;7.85;2.08;;;;;;;;;;5030931;28;20025;-65
2022/12/27 10:42:09;;;;;;;6.80;1.63;;;;;;;;;;5029086;28;20390;-65
2022/12/27 10:44:35;;;;;;;10.05;1.92;;;;;;;;;;5020063;28;20129;-65
2022/12/27 10:47:01;;;;;;;8.75;2.17;;;;;;;;;;5017706;28;20033;-68
2022/12/27 10:49:32;;;;;;;11.48;2.28;;;;;;;;;;5021352;28;20076;-65
2022/12/27 10:52:06;;;;;;;9.98;2.05;;;;;;;;;;5027588;28;20036;-67
2022/12/27 10:54:32;;;;;;;9.02;2.45;;;;;;;;;;5030188;28;20106;-67
2022/12/27 10:57:15;;;;;;;8.82;1.95;;;;;;;;;;5021977;28;20025;-66
2022/12/27 10:59:42;;;;;;;6.32;1.73;;;;;;;;;;5023402;28;20033;-66
2022/12/27 11:02:18;;;;;;;8.50;2.85;;;;;;;;;;5024529;28;20025;-66
2022/12/27 11:05:00;;;;;;;14.57;2.22;;;;;;;;;;5020412;28;20021;-66
2022/12/27 11:07:31;;;;;;;6.15;1.90;;;;;;;;;;5022642;28;20080;-66
2022/12/27 11:10:16;;;;;;;9.52;1.70;;;;;;;;;;5024097;28;20406;-66
2022/12/27 11:12:55;;;;;;;11.13;2.08;;;;;;;;;;5022466;28;20025;-66
2022/12/27 11:15:21;;;;;;;11.80;1.88;;;;;;;;;;5024151;28;20393;-66
2022/12/27 11:17:55;;;;;;;7.78;1.83;;;;;;;;;;5021845;28;20104;-66
2022/12/27 11:20:30;;;;;;;8.43;1.55;;;;;;;;;;5020667;28;20371;-66
2022/12/27 11:22:57;;;;;;;7.63;1.70;;;;;;;;;;5021884;28;20029;-67
2022/12/27 11:25:24;;;;;;;9.70;1.70;;;;;;;;;;5025645;28;20032;-66
2022/12/27 11:27:51;;;;;;;8.35;1.50;;;;;;;;;;5026870;28;20034;-66
2022/12/27 11:30:26;;;;;;;6.97;1.60;;;;;;;;;;5020287;28;20033;-66
2022/12/27 11:32:52;;;;;;;6.07;1.80;;;;;;;;;;5018667;28;20025;-66
2022/12/27 11:35:19;;;;;;;7.80;1.70;;;;;;;;;;5020374;28;20034;-66
2022/12/27 11:37:46;;;;;;;14.15;2.15;;;;;;;;;;5028034;28;20056;-67
2022/12/27 11:40:22;;;;;;;7.55;2.47;;;;;;;;;;5022817;28;20029;-66
2022/12/27 11:42:51;;;;;;;11.77;3.30;;;;;;;;;;5029504;28;20421;-66
2022/12/27 11:45:49;;;;;;;8.85;1.77;;;;;;;;;;5029218;28;20059;-66
2022/12/27 11:48:22;;;;;;;11.82;1.70;;;;;;;;;;5053353;28;20041;-66
2022/12/27 11:50:57;;;;;;;11.05;2.10;;;;;;;;;;5043935;28;20040;-66
2022/12/27 11:53:32;;;;;;;10.13;1.67;;;;;;;;;;5063018;28;20026;-66
2022/12/27 11:56:17;;;;;;;8.00;1.80;;;;;;;;;;5061823;28;20040;-66
2022/12/27 11:59:02;;;;;;;7.88;2.05;;;;;;;;;;5064722;28;20194;-66
2022/12/27 12:01:32;;;;;;;7.40;1.70;;;;;;;;;;5068612;28;20039;-66
2022/12/27 12:03:58;;;;;;;10.02;1.50;;;;;;;;;;5051848;28;20030;-67
2022/12/27 12:06:37;;;;;;;12.20;2.63;;;;;;;;;;5066878;28;20029;-67
2022/12/27 12:09:09;;;;;;;9.32;1.80;;;;;;;;;;5065351;28;20035;-67
2022/12/27 12:11:53;;;;;;;6.97;1.83;;;;;;;;;;5069884;28;20040;-67
2022/12/27 12:14:42;;;;;;;12.65;1.83;;;;;;;;;;5049264;28;20420;-65
2022/12/27 12:17:11;;;;;;;12.18;2.75;;;;;;;;;;5064238;28;20040;-65
2022/12/27 12:19:56;;;;;;;15.95;2.00;;;;;;;;;;5069282;28;20028;-65
2022/12/27 12:22:25;;;;;;;10.13;1.95;;;;;;;;;;5064611;28;20032;-65
2022/12/27 12:24:54;;;;;;;9.85;2.15;;;;;;;;;;5030091;28;20033;-66
2022/12/27 12:27:23;;;;;;;11.65;1.67;;;;;;;;;;5025426;28;20026;-66
2022/12/27 12:30:05;;;;;;;11.77;1.90;;;;;;;;;;5031835;28;20021;-66
2022/12/27 12:32:40;;;;;;;10.18;2.20;;;;;;;;;;5028133;28;20100;-66
2022/12/27 12:35:16;;;;;;;5.97;1.65;;;;;;;;;;5030658;28;20049;-66
2022/12/27 12:38:00;;;;;;;9.95;2.10;;;;;;;;;;5029308;28;20098;-66
2022/12/27 12:40:39;;;;;;;8.70;2.10;;;;;;;;;;5024744;28;20021;-66
2022/12/27 12:43:24;;;;;;;9.95;1.77;;;;;;;;;;5025725;28;20030;-66
2022/12/27 12:45:50;;;;;;;9.38;2.05;;;;;;;;;;5027738;28;20026;-66
2022/12/27 12:48:35;;;;;;;4.95;1.63;;;;;;;;;;5028548;28;20028;-66
2022/12/27 12:51:01;;;;;;;11.63;2.58;;;;;;;;;;5030694;28;20045;-66
2022/12/27 12:53:56;;;;;;;6.22;1.55;;;;;;;;;;5023190;28;20022;-66
2022/12/27 12:56:31;;;;;;;8.50;1.85;;;;;;;;;;5022209;28;20123;-66
2022/12/27 12:59:00;;;;;;;7.20;1.63;;;;;;;;;;5021131;28;20449;-66
2022/12/27 13:01:36;;;;;;;12.73;3.13;;;;;;;;;;5019523;28;20061;-67
2022/12/27 13:04:02;;;;;;;10.35;1.92;;;;;;;;;;5023919;28;20068;-67
2022/12/27 13:06:47;;;;;;;11.63;1.60;;;;;;;;;;5022049;28;20485;-67
2022/12/27 13:09:23;;;;;;;9.98;1.75;;;;;;;;;;5026778;28;20037;-66
2022/12/27 13:11:58;;;;;;;9.23;2.42;;;;;;;;;;5029695;28;20109;-66
2022/12/27 13:14:42;;;;;;;6.63;2.20;;;;;;;;;;5028577;28;20045;-66
2022/12/27 13:17:27;;;;;;;7.22;1.80;;;;;;;;;;5025528;28;20052;-66
2022/12/27 13:20:19;;;;;;;15.98;2.60;;;;;;;;;;5029691;28;20117;-66
2022/12/27 13:22:48;;;;;;;11.57;2.33;;;;;;;;;;4979243;28;20125;-66
2022/12/27 13:25:17;;;;;;;10.02;1.80;;;;;;;;;;4974077;28;20050;-66
2022/12/27 13:28:01;;;;;;;10.05;2.15;;;;;;;;;;4984203;28;20038;-65
2022/12/27 13:30:38;;;;;;;4.25;1.52;;;;;;;;;;4987739;28;20045;-65
2022/12/27 13:33:07;;;;;;;4.88;1.73;;;;;;;;;;4985180;28;20094;-66
2022/12/27 13:35:46;;;;;;;17.60;3.13;;;;;;;;;;4985737;28;20026;-66
2022/12/27 13:38:17;;;;;;;17.75;1.98;;;;;;;;;;4990950;28;20030;-66
2022/12/27 13:40:43;;;;;;;14.98;2.20;;;;;;;;;;4981962;28;20034;-66
2022/12/27 13:43:15;;;;;;;8.52;1.67;;;;;;;;;;4990313;28;20035;-66
2022/12/27 13:45:52;;;;;;;8.82;1.85;;;;;;;;;;4989719;28;20039;-66
2022/12/27 13:48:21;;;;;;;18.52;2.08;;;;;;;;;;4988676;28;20069;-65
2022/12/27 13:50:59;;;;;;;4.70;1.20;;;;;;;;;;4989283;28;20022;-66
2022/12/27 13:53:43;;;;;;;7.45;1.90;;;;;;;;;;4984103;28;20093;-66
2022/12/27 13:56:23;;;;;;;5.43;1.45;;;;;;;;;;4989141;28;20065;-66
2022/12/27 13:59:21;;;;;;;9.35;1.75;;;;;;;;;;4991683;28;20124;-66
2022/12/27 14:01:57;;;;;;;10.07;1.88;;;;;;;;;;5026771;28;20046;-66
2022/12/27 14:04:32;;;;;;;12.98;1.90;;;;;;;;;;5021730;28;20485;-66
2022/12/27 14:07:24;;;;;;;10.25;1.80;;;;;;;;;;5029968;28;20038;-66
2022/12/27 14:10:09;;;;;;;9.20;2.17;;;;;;;;;;4933014;29;20047;-66
2022/12/27 14:12:41;;;;;;;9.43;2.65;;;;;;;;;;4932952;29;20046;-66
2022/12/27 14:15:11;;;;;;;6.07;2.20;;;;;;;;;;4932902;29;20496;-66
2022/12/27 14:17:40;;;;;;;7.70;2.05;;;;;;;;;;4932932;29;20130;-66
2022/12/27 14:20:23;;;;;;;8.43;2.22;;;;;;;;;;4922664;29;20040;-66
2022/12/27 14:22:52;;;;;;;7.65;2.10;;;;;;;;;;4915852;29;20028;-66
2022/12/27 14:25:37;;;;;;;14.77;2.35;;;;;;;;;;4915773;29;20036;-66
2022/12/27 14:28:26;;;;;;;10.90;1.98;;;;;;;;;;4914750;29;20064;-66
2022/12/27 14:30:55;;;;;;;13.45;2.28;;;;;;;;;;4910519;29;20056;-67
2022/12/27 14:33:21;;;;;;;11.30;1.90;;;;;;;;;;4941614;28;20125;-66
2022/12/27 14:36:02;;;;;;;8.52;1.80;;;;;;;;;;4932964;29;20499;-66
2022/12/27 14:38:47;;;;;;;8.15;2.38;;;;;;;;;;4950528;28;20031;-66
2022/12/27 14:41:31;;;;;;;12.63;2.20;;;;;;;;;;4951571;28;20047;-66
2022/12/27 14:44:24;;;;;;;10.93;2.55;;;;;;;;;;4951504;28;20098;-66
2022/12/27 14:46:59;;;;;;;9.82;1.58;;;;;;;;;;4992671;28;20038;-66
2022/12/27 14:49:44;;;;;;;13.20;2.30;;;;;;;;;;5030185;28;20033;-66
2022/12/27 14:52:10;;;;;;;8.50;2.30;;;;;;;;;;5030720;28;20038;-66
2022/12/27 14:54:55;;;;;;;13.10;2.10;;;;;;;;;;5032918;28;20025;-66
2022/12/27 14:57:39;;;;;;;9.65;2.38;;;;;;;;;;5017023;28;20057;-66
2022/12/27 15:00:19;;;;;;;11.02;2.20;;;;;;;;;;5028347;28;20116;-66
2022/12/27 15:02:48;;;;;;;10.70;2.05;;;;;;;;;;5019806;28;20057;-66
2022/12/27 15:05:20;;;;;;;9.52;2.08;;;;;;;;;;5024246;28;20034;-67
2022/12/27 15:07:52;;;;;;;9.77;1.85;;;;;;;;;;5026596;28;20030;-66
2022/12/27 15:10:24;;;;;;;4.93;1.97;;;;;;;;;;5026524;28;20060;-66
2022/12/27 15:12:53;;;;;;;9.77;2.50;;;;;;;;;;5025082;28;20043;-66
2022/12/27 15:15:22;;;;;;;9.40;2.00;;;;;;;;;;5024494;28;20029;-66
2022/12/27 15:17:48;;;;;;;19.42;2.65;;;;;;;;;;5021846;28;20033;-66
2022/12/27 15:20:33;;;;;;;16.02;2.17;;;;;;;;;;5025809;28;20060;-66
2022/12/27 15:23:03;;;;;;;10.40;1.77;;;;;;;;;;5037372;28;20529;-66
2022/12/27 15:25:29;;;;;;;7.78;2.30;;;;;;;;;;5031846;28;20022;-66
2022/12/27 15:28:07;;;;;;;9.60;3.15;;;;;;;;;;5028826;28;20026;-66
2022/12/27 15:30:48;;;;;;;9.23;1.70;;;;;;;;;;5031397;28;20373;-66
2022/12/27 15:33:19;;;;;;;9.00;2.40;;;;;;;;;;5033794;28;20139;-66
2022/12/27 15:35:51;;;;;;;16.20;3.55;;;;;;;;;;5031613;28;20029;-66
2022/12/27 15:38:37;;;;;;;8.90;2.00;;;;;;;;;;5021036;28;20052;-66
2022/12/27 15:41:06;;;;;;;6.22;1.77;;;;;;;;;;5028738;28;20030;-66
2022/12/27 15:43:35;;;;;;;13.35;3.63;;;;;;;;;;5031140;28;20021;-66
2022/12/27 15:46:22;;;;;;;12.10;2.22;;;;;;;;;;5016946;28;20029;-65
2022/12/27 15:49:07;;;;;;;12.88;2.10;;;;;;;;;;5022284;28;20135;-65
2022/12/27 15:51:48;;;;;;;14.43;2.38;;;;;;;;;;5028114;28;20021;-67
2022/12/27 15:54:23;;;;;;;14.90;3.75;;;;;;;;;;5017785;28;20033;-66
2022/12/27 15:57:04;;;;;;;12.32;2.60;;;;;;;;;;5016524;28;20375;-66
2022/12/27 15:59:34;;;;;;;15.07;3.55;;;;;;;;;;5026705;28;20066;-67
2022/12/27 16:02:18;;;;;;;8.82;2.53;;;;;;;;;;5023292;28;20052;-67
2022/12/27 16:04:49;;;;;;;16.00;4.03;;;;;;;;;;5030539;28;20442;-66
2022/12/27 16:07:34;;;;;;;16.17;3.40;;;;;;;;;;5026295;28;20536;-65
2022/12/27 16:10:20;;;;;;;18.83;4.47;;;;;;;;;;5022634;28;20036;-65
2022/12/27 16:12:47;;;;;;;16.15;3.50;;;;;;;;;;5024890;28;20026;-65
2022/12/27 16:15:38;;;;;;;11.93;3.17;;;;;;;;;;5021845;28;20032;-65
2022/12/27 16:18:04;;;;;;;15.30;3.35;;;;;;;;;;5019068;28;20049;-66
2022/12/27 16:20:31;;;;;;;13.30;2.95;;;;;;;;;;5017747;28;20017;-64
2022/12/27 16:22:59;;;;;;;12.10;3.28;;;;;;;;;;5030213;28;20102;-64
2022/12/27 16:25:27;;;;;;;15.73;3.00;;;;;;;;;;5021944;28;20029;-64
2022/12/27 16:28:04;;;;;;;16.15;3.70;;;;;;;;;;5026856;28;20116;-64
2022/12/27 16:30:34;;;;;;;13.52;3.10;;;;;;;;;;5021193;28;20044;-64
2022/12/27 16:33:00;;;;;;;15.55;3.55;;;;;;;;;;5025413;28;20041;-64